Terminal Aerodrome Forecast
Issued by NWS

Home | Current Version | Previous Version | Text Only | Print | Product List | Glossary On
Versions: 1 2 3 4 5 6 7 8 9 10 11 12 13 14 15 16 17 18 19
940
FTUS43 KICT 192118 AAA
TAFRSL
TAF AMD
KRSL 192118Z 1921/2018 16010KT 5SM BR SCT009 BKN015
     FM200300 15004KT 4SM BR BKN007
     FM200800 05004KT 2SM -DZ BR BKN003
     FM201000 04004KT 1/2SM -DZ FG OVC003
     FM201500 07004KT P6SM OVC003=

USA.gov is the U.S. government's official web portal to all federal, state and local government web resources and services.